createdAt,value
2023-01-20T00:03:20.500Z,100294.75
2023-01-20T00:07:19.906Z,100301.84
2023-01-20T00:11:18.776Z,100292.31
2023-01-20T00:15:18.545Z,100282.91
2023-01-20T00:19:19.973Z,100296.88
2023-01-20T00:23:18.724Z,100304.72
2023-01-20T00:27:20.392Z,100297.66
2023-01-20T00:31:20.880Z,100308.22
2023-01-20T00:35:22.486Z,100295.97
2023-01-20T00:39:21.287Z,100287.38
2023-01-20T00:43:20.701Z,100287.56
2023-01-20T00:47:20.752Z,100276.25
2023-01-20T00:51:21.933Z,100278.84
2023-01-20T00:55:21.471Z,100271.84
2023-01-20T00:59:20.465Z,100265.78
2023-01-20T01:03:20.565Z,100257.03
2023-01-20T01:07:22.288Z,100257.06
2023-01-20T01:11:21.809Z,100248.28
2023-01-20T01:15:21.032Z,100251.75
2023-01-20T01:19:20.839Z,100243.94
2023-01-20T01:23:21.848Z,100248.31
2023-01-20T01:27:21.290Z,100250.94
2023-01-20T01:31:21.629Z,100232.66
2023-01-20T01:35:20.375Z,100245.78
2023-01-20T01:39:21.803Z,100244.03
2023-01-20T01:43:24.222Z,100228.31
2023-01-20T01:47:23.506Z,100231.84
2023-01-20T01:51:24.794Z,100224.88
2023-01-20T01:55:29.180Z,100229.22
2023-01-20T01:59:28.399Z,100227.47
2023-01-20T02:03:30.703Z,100219.66
2023-01-20T02:07:30.799Z,100216.16
2023-01-20T02:11:32.311Z,100201.38
2023-01-20T02:15:35.856Z,100197.00
2023-01-20T02:19:52.630Z,100179.56
2023-01-20T02:24:10.061Z,100196.09
2023-01-20T02:28:24.213Z,100191.53
2023-01-20T02:32:28.360Z,100192.25
2023-01-20T02:36:31.153Z,100183.56
2023-01-20T02:40:33.701Z,100174.03
2023-01-20T02:44:38.340Z,100171.56
2023-01-20T02:48:44.449Z,100170.88
2023-01-20T02:52:46.318Z,100155.19
2023-01-20T02:56:46.097Z,100154.31
2023-01-20T03:00:48.357Z,100158.69
2023-01-20T03:04:52.125Z,100161.28
2023-01-20T03:08:54.003Z,100162.13
2023-01-20T03:12:55.947Z,100163.03
2023-01-20T03:16:55.699Z,100164.78
2023-01-20T03:20:57.092Z,100162.16
2023-01-20T03:24:58.006Z,100164.75
2023-01-20T03:28:57.780Z,100146.50
2023-01-20T03:32:57.379Z,100154.34
2023-01-20T03:36:58.891Z,100163.03
2023-01-20T03:41:02.765Z,100162.91
2023-01-20T03:45:03.654Z,100157.56
2023-01-20T03:49:10.303Z,100144.50
2023-01-20T03:53:20.110Z,100138.44
2023-01-20T03:57:21.098Z,100140.28
2023-01-20T04:01:22.111Z,100131.63
2023-01-20T04:05:22.348Z,100129.06
2023-01-20T04:09:25.300Z,100143.88
2023-01-20T04:13:25.340Z,100134.28
2023-01-20T04:17:28.750Z,100131.69
2023-01-20T04:21:32.337Z,100123.84
2023-01-20T04:25:34.431Z,100117.75
2023-01-20T04:29:33.887Z,100124.75
2023-01-20T04:33:33.199Z,100112.53
2023-01-20T04:37:32.163Z,100119.50
2023-01-20T04:41:33.949Z,100116.03
2023-01-20T04:45:33.319Z,100108.97
2023-01-20T04:49:34.469Z,100112.22
2023-01-20T04:53:33.758Z,100126.91
2023-01-20T04:57:35.376Z,100123.38
2023-01-20T05:01:34.841Z,100125.00
2023-01-20T05:05:34.211Z,100131.97
2023-01-20T05:09:33.645Z,100132.09
2023-01-20T05:13:38.741Z,100139.97
2023-01-20T05:17:38.231Z,100140.84
2023-01-20T05:21:37.513Z,100146.13
2023-01-20T05:25:36.720Z,100143.53
2023-01-20T05:29:38.497Z,100146.97
2023-01-20T05:33:40.671Z,100146.88
2023-01-20T05:37:55.805Z,100146.84
2023-01-20T05:41:58.566Z,100133.63
2023-01-20T05:45:59.715Z,100130.13
2023-01-20T05:49:59.336Z,100116.09
2023-01-20T05:53:58.750Z,100104.78
2023-01-20T05:57:57.393Z,100116.97
2023-01-20T06:01:59.042Z,100129.19
2023-01-20T06:06:01.265Z,100146.47
2023-01-20T06:10:02.063Z,100154.19
2023-01-20T06:14:01.270Z,100147.88
2023-01-20T06:18:02.662Z,100152.16
2023-01-20T06:22:01.949Z,100158.50
2023-01-20T06:26:02.933Z,100156.97
2023-01-20T06:30:02.170Z,100169.16
2023-01-20T06:34:03.786Z,100156.09
2023-01-20T06:38:02.605Z,100161.25
2023-01-20T06:42:02.228Z,100165.56
2023-01-20T06:46:02.025Z,100163.81
2023-01-20T06:50:05.763Z,100161.13
2023-01-20T06:54:05.468Z,100140.22
2023-01-20T06:58:06.144Z,100152.59
2023-01-20T07:02:06.745Z,100141.34
2023-01-20T07:06:15.913Z,100170.25
2023-01-20T07:10:15.457Z,100165.00
2023-01-20T07:14:14.920Z,100149.16
2023-01-20T07:18:14.584Z,100135.94
2023-01-20T07:22:16.707Z,100142.06
2023-01-20T07:26:17.649Z,100133.22
2023-01-20T07:30:17.614Z,100144.47
2023-01-20T07:34:17.668Z,100143.50
2023-01-20T07:38:19.193Z,100146.94
2023-01-20T07:42:18.840Z,100138.84
2023-01-20T07:46:20.144Z,100126.41
2023-01-20T07:50:20.009Z,100130.63
2023-01-20T07:54:21.735Z,100133.28
2023-01-20T07:58:20.715Z,100130.66
2023-01-20T08:02:20.507Z,100128.63
2023-01-20T08:06:23.707Z,100123.25
2023-01-20T08:10:27.723Z,100113.34
2023-01-20T08:14:27.259Z,100119.28
2023-01-20T08:18:26.684Z,100118.25
2023-01-20T08:22:26.958Z,100135.56
2023-01-20T08:26:29.212Z,100142.34
2023-01-20T08:30:28.582Z,100140.53
2023-01-20T08:34:28.161Z,100136.78
2023-01-20T08:38:27.488Z,100140.84
2023-01-20T08:42:28.538Z,100130.78
2023-01-20T08:46:28.229Z,100107.72
2023-01-20T08:50:27.568Z,100123.00
2023-01-20T08:54:29.019Z,100120.38
2023-01-20T08:58:30.373Z,100111.50
2023-01-20T09:02:29.920Z,100117.50
2023-01-20T09:06:29.137Z,100105.34
2023-01-20T09:10:27.863Z,100092.00
2023-01-20T09:14:29.393Z,100079.09
2023-01-20T09:18:28.691Z,100114.25
2023-01-20T09:22:27.969Z,100106.41
2023-01-20T09:26:35.806Z,100082.66
2023-01-20T09:30:37.412Z,100065.75
2023-01-20T09:34:36.805Z,100052.19
2023-01-20T09:38:52.233Z,100051.19
2023-01-20T09:43:19.393Z,100043.59
2023-01-20T09:47:30.468Z,100018.63
2023-01-20T09:51:52.620Z,100001.47
2023-01-20T09:55:53.067Z,100000.53
2023-01-20T09:59:54.317Z,100000.91
2023-01-20T10:03:58.461Z,99990.34
2023-01-20T10:08:00.307Z,99998.03
2023-01-20T10:12:03.741Z,99988.47
2023-01-20T10:16:06.977Z,99985.25
2023-01-20T10:20:11.320Z,99976.03
2023-01-20T10:24:12.813Z,99984.88
2023-01-20T10:28:13.973Z,99971.50
2023-01-20T10:32:15.532Z,99956.19
2023-01-20T10:36:21.133Z,99951.13
2023-01-20T10:40:27.233Z,99944.06
2023-01-20T10:44:26.616Z,99940.38
2023-01-20T10:48:35.000Z,99937.69
2023-01-20T10:52:46.149Z,99926.91
2023-01-20T10:56:46.004Z,99930.72
2023-01-20T11:00:46.043Z,99920.53
2023-01-20T11:04:46.406Z,99904.41
2023-01-20T11:08:47.867Z,99909.94
2023-01-20T11:12:49.260Z,99908.34
2023-01-20T11:16:51.553Z,99905.28
2023-01-20T11:20:52.058Z,99904.94
2023-01-20T11:24:55.608Z,99904.09
2023-01-20T11:28:56.519Z,99892.63
2023-01-20T11:33:10.342Z,99889.72
2023-01-20T11:37:17.489Z,99893.19
2023-01-20T11:41:23.057Z,99891.59
2023-01-20T11:45:34.233Z,99889.22
2023-01-20T11:49:33.727Z,99892.56
2023-01-20T11:53:34.057Z,99880.19
2023-01-20T11:57:35.575Z,99872.28
2023-01-20T12:01:52.520Z,99865.41
2023-01-20T12:05:55.062Z,99843.41
2023-01-20T12:09:55.569Z,99787.25
2023-01-20T12:14:28.592Z,99824.31
2023-01-20T12:18:36.071Z,99816.56
2023-01-20T12:22:39.033Z,99788.38
2023-01-20T12:26:38.646Z,99793.97
2023-01-20T12:30:48.134Z,99782.94
2023-01-20T12:34:49.145Z,99790.66
2023-01-20T12:38:54.262Z,99785.84
2023-01-20T12:43:15.834Z,99798.41
2023-01-20T12:47:23.749Z,99806.44
2023-01-20T12:51:30.745Z,99809.38
2023-01-20T12:55:45.745Z,99806.13
2023-01-20T12:59:51.009Z,99802.66
2023-01-20T13:04:04.549Z,99804.84
2023-01-20T13:08:12.697Z,99799.75
2023-01-20T13:12:22.702Z,99782.31
2023-01-20T13:16:26.017Z,99780.78
2023-01-20T13:20:27.373Z,99780.09
2023-01-20T13:24:30.949Z,99778.84
2023-01-20T13:28:30.859Z,99798.66
2023-01-20T13:32:34.387Z,99783.09
2023-01-20T13:36:33.714Z,99769.31
2023-01-20T13:40:51.129Z,99778.16
2023-01-20T13:45:10.954Z,99776.53
2023-01-20T13:49:14.815Z,99764.38
2023-01-20T13:53:16.335Z,99788.94
2023-01-20T13:57:46.374Z,99817.56
2023-01-20T14:01:48.192Z,99829.59
2023-01-20T14:05:50.465Z,99838.25
2023-01-20T14:09:52.817Z,99834.06
2023-01-20T14:14:01.563Z,99836.44
2023-01-20T14:18:16.361Z,99826.25
2023-01-20T14:22:24.407Z,99828.28
2023-01-20T14:26:24.884Z,99811.13
2023-01-20T14:30:25.531Z,99809.59
2023-01-20T14:34:36.881Z,99818.31
2023-01-20T14:38:45.236Z,99838.56
2023-01-20T14:43:00.993Z,99850.91
2023-01-20T14:47:01.323Z,99859.75
2023-01-20T14:51:03.784Z,99852.09
2023-01-20T14:55:02.937Z,99847.88
2023-01-20T14:59:02.156Z,99846.38
2023-01-20T15:03:11.234Z,99863.97
2023-01-20T15:07:19.282Z,99869.22
2023-01-20T15:11:23.345Z,99845.84
2023-01-20T15:15:27.613Z,99832.09
2023-01-20T15:19:35.886Z,99826.25
2023-01-20T15:23:38.560Z,99828.03
2023-01-20T15:27:38.522Z,99832.50
2023-01-20T15:31:37.647Z,99838.69
2023-01-20T15:35:37.068Z,99843.09
2023-01-20T15:39:38.529Z,99842.38
2023-01-20T15:43:37.671Z,99838.03
2023-01-20T15:47:37.251Z,99846.84
2023-01-20T15:51:36.024Z,99847.66
2023-01-20T15:55:38.738Z,99833.69
2023-01-20T15:59:37.976Z,99827.69
2023-01-20T16:03:37.295Z,99831.13
2023-01-20T16:07:36.770Z,99829.41
2023-01-20T16:11:37.593Z,99834.78
2023-01-20T16:15:37.233Z,99851.41
2023-01-20T16:19:35.930Z,99869.69
2023-01-20T16:23:35.203Z,99881.00
2023-01-20T16:27:36.316Z,99883.53
2023-01-20T16:31:35.873Z,99900.13
2023-01-20T16:35:35.216Z,99908.00
2023-01-20T16:39:34.428Z,99915.00
2023-01-20T16:43:35.896Z,99917.75
2023-01-20T16:47:37.839Z,99917.88
2023-01-20T16:51:37.663Z,99917.06
2023-01-20T16:55:37.228Z,99935.41
2023-01-20T16:59:38.674Z,99942.44
2023-01-20T17:03:40.704Z,99947.59
2023-01-20T17:07:40.459Z,99941.44
2023-01-20T17:11:40.614Z,99945.63
2023-01-20T17:15:42.392Z,99948.84
2023-01-20T17:19:41.174Z,99939.91
2023-01-20T17:23:40.877Z,99938.44
2023-01-20T17:27:40.527Z,99936.97
2023-01-20T17:31:42.588Z,99942.47
2023-01-20T17:35:43.117Z,99950.16
2023-01-20T17:39:42.543Z,99996.13
2023-01-20T17:43:42.649Z,100047.75
2023-01-20T17:47:44.042Z,100059.41
2023-01-20T17:51:47.072Z,100090.81
2023-01-20T17:55:46.569Z,100121.22
2023-01-20T17:59:45.791Z,100138.59
2023-01-20T18:03:54.498Z,100130.72
2023-01-20T18:07:54.808Z,100166.41
2023-01-20T18:11:54.628Z,100168.91
2023-01-20T18:15:54.068Z,100179.31
2023-01-20T18:19:55.474Z,100174.94
2023-01-20T18:23:55.173Z,100202.25
2023-01-20T18:27:54.427Z,100198.84
2023-01-20T18:31:53.183Z,100225.63
2023-01-20T18:35:54.894Z,100249.81
2023-01-20T18:39:54.715Z,100263.31
2023-01-20T18:43:54.713Z,100280.41
2023-01-20T18:47:53.812Z,100302.81
2023-01-20T18:51:55.201Z,100312.97
2023-01-20T18:55:54.526Z,100336.47
2023-01-20T18:59:54.344Z,100344.03
2023-01-20T19:03:54.224Z,100347.94
2023-01-20T19:07:56.444Z,100352.03
2023-01-20T19:11:56.259Z,100369.06
2023-01-20T19:15:55.795Z,100371.50
2023-01-20T19:19:55.512Z,100382.31
2023-01-20T19:23:59.762Z,100385.81
2023-01-20T19:28:01.239Z,100370.41
2023-01-20T19:32:00.522Z,100399.28
2023-01-20T19:36:00.265Z,100408.88
2023-01-20T19:40:03.412Z,100430.44
2023-01-20T19:44:04.130Z,100435.34
2023-01-20T19:48:04.232Z,100444.78
2023-01-20T19:52:03.758Z,100448.44
2023-01-20T19:56:05.288Z,100451.84
2023-01-20T20:00:06.619Z,100457.06
2023-01-20T20:04:14.044Z,100444.06
2023-01-20T20:08:13.690Z,100444.91
2023-01-20T20:12:15.250Z,100449.44
2023-01-20T20:16:18.704Z,100444.00
2023-01-20T20:20:20.173Z,100450.16
2023-01-20T20:24:24.837Z,100456.97
2023-01-20T20:28:26.580Z,100474.41
2023-01-20T20:32:27.435Z,100478.19
2023-01-20T20:36:28.149Z,100476.22
2023-01-20T20:40:40.841Z,100494.38
2023-01-20T20:44:50.208Z,100498.56
2023-01-20T20:48:51.673Z,100513.34
2023-01-20T20:52:55.783Z,100517.38
2023-01-20T20:57:00.293Z,100534.25
2023-01-20T21:01:04.179Z,100531.84
2023-01-20T21:05:03.921Z,100551.34
2023-01-20T21:09:02.829Z,100558.53
2023-01-20T21:13:06.608Z,100552.91
2023-01-20T21:17:08.172Z,100558.88
2023-01-20T21:21:10.794Z,100575.09
2023-01-20T21:25:10.796Z,100585.28
2023-01-20T21:29:09.524Z,100589.78
2023-01-20T21:33:15.102Z,100571.38
2023-01-20T21:37:14.474Z,100597.53
2023-01-20T21:41:14.978Z,100606.84
2023-01-20T21:45:14.353Z,100617.38
2023-01-20T21:49:32.270Z,100619.78
2023-01-20T21:53:31.635Z,100631.00
2023-01-20T21:57:32.457Z,100642.03
2023-01-20T22:01:31.928Z,100636.97
2023-01-20T22:05:33.504Z,100645.59
2023-01-20T22:09:32.329Z,100645.59
2023-01-20T22:13:31.791Z,100631.91
2023-01-20T22:17:34.905Z,100631.25
2023-01-20T22:21:35.966Z,100643.78
2023-01-20T22:25:35.673Z,100654.97
2023-01-20T22:29:35.052Z,100664.84
2023-01-20T22:33:34.460Z,100676.47
2023-01-20T22:37:36.133Z,100662.84
2023-01-20T22:41:35.752Z,100666.38
2023-01-20T22:45:37.069Z,100671.25
2023-01-20T22:49:36.365Z,100673.63
2023-01-20T22:53:41.027Z,100690.41
2023-01-20T22:57:40.392Z,100696.47
2023-01-20T23:01:42.500Z,100701.06
2023-01-20T23:05:42.158Z,100696.69
2023-01-20T23:09:43.396Z,100710.91
2023-01-20T23:13:43.044Z,100720.06
2023-01-20T23:17:41.988Z,100728.66
2023-01-20T23:21:41.511Z,100734.09
2023-01-20T23:25:43.264Z,100727.81
2023-01-20T23:29:42.557Z,100729.56
2023-01-20T23:33:48.491Z,100735.38
2023-01-20T23:37:48.603Z,100738.94
2023-01-20T23:41:52.574Z,100750.97
2023-01-20T23:45:51.886Z,100750.28
2023-01-20T23:50:00.474Z,100746.69
2023-01-20T23:54:02.297Z,100733.00
2023-01-20T23:58:06.736Z,100742.78
